XS13 weather

T-4 Ranch Airport
Medina, Texas, United States

Public forecast

Using degrees Fahrenheit for public forecast. Weather courtesy of forecast.io.

Closest aviation weather report (METAR) to T-4 Ranch Airport

Closest report is Kerrville Municipal Louis Schreiner Field, 11.2 nm (20.8 km) NNE. Retrieved 2019/10/19 19:35 UTC (0 seconds ago):

KERV 191935Z AUTO 35007KT 10SM CLR 33/07 A2979 RMK AO2 T03310073

Closest aviation forecast (TAF) to T-4 Ranch Airport

Closest forecast is Lackland Air Force Base, 41.3 nm (76.5 km) SE. Retrieved 2019/10/19 18:30 UTC (39 minutes ago):

TAF KSKF 191800Z 1918/2024 26008KT 9999 FEW030 QNH2972INS BECMG 2000/2001 36005KT 9999 FEW050 QNH2975INS BECMG 2011/2012 07006KT 9999 BKN025 QNH2979INS BECMG 2019/2020 16012G18KT 9999 BKN035 QNH2970INS TX33/1921Z TN19/2012Z